sensor_id;sensor_type;location;lat;lon;timestamp;P1;durP1;ratioP1;P2;durP2;ratioP2
64094;SDS011;50353;51.420;5.682;2023-02-23T00:01:16;56.45;;;31.08;;
64094;SDS011;50353;51.420;5.682;2023-02-23T00:03:42;59.58;;;31.58;;
64094;SDS011;50353;51.420;5.682;2023-02-23T00:06:08;38.10;;;22.77;;
64094;SDS011;50353;51.420;5.682;2023-02-23T00:08:35;61.03;;;32.57;;
64094;SDS011;50353;51.420;5.682;2023-02-23T00:11:05;64.97;;;31.38;;
64094;SDS011;50353;51.420;5.682;2023-02-23T00:13:32;57.55;;;32.78;;
64094;SDS011;50353;51.420;5.682;2023-02-23T00:16:08;62.08;;;31.63;;
64094;SDS011;50353;51.420;5.682;2023-02-23T00:18:36;60.13;;;32.97;;
64094;SDS011;50353;51.420;5.682;2023-02-23T00:21:12;56.58;;;30.88;;
64094;SDS011;50353;51.420;5.682;2023-02-23T00:23:49;56.35;;;31.17;;
64094;SDS011;50353;51.420;5.682;2023-02-23T00:26:19;61.17;;;32.67;;
64094;SDS011;50353;51.420;5.682;2023-02-23T00:28:46;56.83;;;31.35;;
64094;SDS011;50353;51.420;5.682;2023-02-23T00:31:12;51.70;;;30.77;;
64094;SDS011;50353;51.420;5.682;2023-02-23T00:33:38;60.83;;;33.72;;
64094;SDS011;50353;51.420;5.682;2023-02-23T00:36:06;59.13;;;32.08;;
64094;SDS011;50353;51.420;5.682;2023-02-23T00:38:34;57.53;;;31.40;;
64094;SDS011;50353;51.420;5.682;2023-02-23T00:41:04;55.85;;;31.00;;
64094;SDS011;50353;51.420;5.682;2023-02-23T00:43:34;61.75;;;31.65;;
64094;SDS011;50353;51.420;5.682;2023-02-23T00:48:29;55.08;;;29.55;;
64094;SDS011;50353;51.420;5.682;2023-02-23T00:50:59;54.87;;;28.57;;
64094;SDS011;50353;51.420;5.682;2023-02-23T00:53:25;61.78;;;29.83;;
64094;SDS011;50353;51.420;5.682;2023-02-23T00:55:51;43.90;;;25.20;;
64094;SDS011;50353;51.420;5.682;2023-02-23T00:58:18;62.83;;;30.00;;
64094;SDS011;50353;51.420;5.682;2023-02-23T01:00:43;59.65;;;31.55;;
64094;SDS011;50353;51.420;5.682;2023-02-23T01:03:09;60.97;;;31.00;;
64094;SDS011;50353;51.420;5.682;2023-02-23T01:05:34;55.53;;;30.98;;
64094;SDS011;50353;51.420;5.682;2023-02-23T01:07:59;59.42;;;31.50;;
64094;SDS011;50353;51.420;5.682;2023-02-23T01:10:25;60.38;;;31.90;;
64094;SDS011;50353;51.420;5.682;2023-02-23T01:12:50;58.42;;;30.67;;
64094;SDS011;50353;51.420;5.682;2023-02-23T01:15:17;57.70;;;30.55;;
64094;SDS011;50353;51.420;5.682;2023-02-23T01:17:43;54.85;;;29.73;;
64094;SDS011;50353;51.420;5.682;2023-02-23T01:20:10;59.33;;;30.67;;
64094;SDS011;50353;51.420;5.682;2023-02-23T01:22:42;54.28;;;30.23;;
64094;SDS011;50353;51.420;5.682;2023-02-23T01:25:11;50.90;;;29.48;;
64094;SDS011;50353;51.420;5.682;2023-02-23T01:27:38;59.20;;;31.20;;
64094;SDS011;50353;51.420;5.682;2023-02-23T01:30:05;51.28;;;28.45;;
64094;SDS011;50353;51.420;5.682;2023-02-23T01:32:33;47.35;;;26.52;;
64094;SDS011;50353;51.420;5.682;2023-02-23T01:34:59;50.47;;;29.13;;
64094;SDS011;50353;51.420;5.682;2023-02-23T01:37:24;58.38;;;31.13;;
64094;SDS011;50353;51.420;5.682;2023-02-23T01:39:49;56.13;;;29.67;;
64094;SDS011;50353;51.420;5.682;2023-02-23T01:42:15;50.20;;;28.13;;
64094;SDS011;50353;51.420;5.682;2023-02-23T01:47:06;47.20;;;24.75;;
64094;SDS011;50353;51.420;5.682;2023-02-23T01:49:32;46.60;;;26.47;;
64094;SDS011;50353;51.420;5.682;2023-02-23T01:52:03;49.30;;;26.27;;
64094;SDS011;50353;51.420;5.682;2023-02-23T01:54:35;49.38;;;26.48;;
64094;SDS011;50353;51.420;5.682;2023-02-23T01:57:04;45.25;;;26.55;;
64094;SDS011;50353;51.420;5.682;2023-02-23T01:59:36;50.90;;;27.50;;
64094;SDS011;50353;51.420;5.682;2023-02-23T02:02:05;59.22;;;31.25;;
64094;SDS011;50353;51.420;5.682;2023-02-23T02:04:32;52.92;;;25.50;;
64094;SDS011;50353;51.420;5.682;2023-02-23T02:07:12;47.03;;;27.45;;
64094;SDS011;50353;51.420;5.682;2023-02-23T02:09:40;51.80;;;27.77;;
64094;SDS011;50353;51.420;5.682;2023-02-23T02:12:27;48.20;;;27.73;;
64094;SDS011;50353;51.420;5.682;2023-02-23T02:14:52;52.70;;;28.35;;
64094;SDS011;50353;51.420;5.682;2023-02-23T02:34:13;55.60;;;29.25;;
64094;SDS011;50353;51.420;5.682;2023-02-23T02:37:04;52.65;;;28.42;;
64094;SDS011;50353;51.420;5.682;2023-02-23T02:39:47;58.00;;;30.23;;
64094;SDS011;50353;51.420;5.682;2023-02-23T02:42:47;56.17;;;30.67;;
64094;SDS011;50353;51.420;5.682;2023-02-23T02:45:21;58.05;;;32.65;;
64094;SDS011;50353;51.420;5.682;2023-02-23T02:48:02;67.28;;;32.45;;
64094;SDS011;50353;51.420;5.682;2023-02-23T02:53:22;59.88;;;31.85;;
64094;SDS011;50353;51.420;5.682;2023-02-23T02:56:04;59.83;;;32.47;;
64094;SDS011;50353;51.420;5.682;2023-02-23T02:58:32;62.33;;;34.33;;
64094;SDS011;50353;51.420;5.682;2023-02-23T03:01:03;80.40;;;38.20;;
64094;SDS011;50353;51.420;5.682;2023-02-23T03:03:57;87.82;;;40.80;;
64094;SDS011;50353;51.420;5.682;2023-02-23T03:09:46;82.57;;;40.13;;
64094;SDS011;50353;51.420;5.682;2023-02-23T03:12:59;73.72;;;35.83;;
64094;SDS011;50353;51.420;5.682;2023-02-23T03:15:53;87.22;;;40.50;;
64094;SDS011;50353;51.420;5.682;2023-02-23T03:22:13;86.22;;;39.78;;
64094;SDS011;50353;51.420;5.682;2023-02-23T03:27:53;84.38;;;40.67;;
64094;SDS011;50353;51.420;5.682;2023-02-23T03:31:10;79.10;;;36.85;;
64094;SDS011;50353;51.420;5.682;2023-02-23T03:34:12;88.35;;;41.38;;
64094;SDS011;50353;51.420;5.682;2023-02-23T03:37:10;86.75;;;41.00;;
64094;SDS011;50353;51.420;5.682;2023-02-23T03:40:06;87.28;;;40.45;;
64094;SDS011;50353;51.420;5.682;2023-02-23T03:42:56;82.07;;;40.92;;
64094;SDS011;50353;51.420;5.682;2023-02-23T03:45:43;87.75;;;41.90;;
64094;SDS011;50353;51.420;5.682;2023-02-23T03:48:30;82.55;;;40.25;;
64094;SDS011;50353;51.420;5.682;2023-02-23T03:51:18;85.47;;;41.53;;
64094;SDS011;50353;51.420;5.682;2023-02-23T03:54:15;77.77;;;38.23;;
64094;SDS011;50353;51.420;5.682;2023-02-23T03:57:04;85.90;;;41.08;;
64094;SDS011;50353;51.420;5.682;2023-02-23T03:59:54;84.35;;;40.22;;
64094;SDS011;50353;51.420;5.682;2023-02-23T04:02:42;81.13;;;38.22;;
64094;SDS011;50353;51.420;5.682;2023-02-23T04:05:30;75.60;;;39.35;;
64094;SDS011;50353;51.420;5.682;2023-02-23T04:08:17;79.57;;;38.63;;
64094;SDS011;50353;51.420;5.682;2023-02-23T04:11:17;81.78;;;39.78;;
64094;SDS011;50353;51.420;5.682;2023-02-23T04:14:08;81.63;;;40.72;;
64094;SDS011;50353;51.420;5.682;2023-02-23T04:16:39;81.63;;;40.03;;
64094;SDS011;50353;51.420;5.682;2023-02-23T04:19:06;79.40;;;39.80;;
64094;SDS011;50353;51.420;5.682;2023-02-23T04:21:31;76.82;;;37.92;;
64094;SDS011;50353;51.420;5.682;2023-02-23T04:23:56;79.60;;;39.78;;
64094;SDS011;50353;51.420;5.682;2023-02-23T04:26:22;86.18;;;41.38;;
64094;SDS011;50353;51.420;5.682;2023-02-23T04:28:47;84.30;;;40.83;;
64094;SDS011;50353;51.420;5.682;2023-02-23T04:31:12;81.82;;;40.17;;
64094;SDS011;50353;51.420;5.682;2023-02-23T04:33:37;82.00;;;40.33;;
64094;SDS011;50353;51.420;5.682;2023-02-23T04:36:03;87.93;;;41.00;;
64094;SDS011;50353;51.420;5.682;2023-02-23T04:38:28;88.97;;;42.75;;
64094;SDS011;50353;51.420;5.682;2023-02-23T04:40:54;93.82;;;42.03;;
64094;SDS011;50353;51.420;5.682;2023-02-23T04:43:19;86.40;;;41.03;;
64094;SDS011;50353;51.420;5.682;2023-02-23T04:45:44;88.10;;;42.13;;
64094;SDS011;50353;51.420;5.682;2023-02-23T04:48:10;91.00;;;42.50;;
64094;SDS011;50353;51.420;5.682;2023-02-23T04:50:35;90.65;;;43.33;;
64094;SDS011;50353;51.420;5.682;2023-02-23T04:53:01;82.32;;;39.60;;
64094;SDS011;50353;51.420;5.682;2023-02-23T04:55:26;85.65;;;42.38;;
64094;SDS011;50353;51.420;5.682;2023-02-23T04:57:55;82.38;;;41.28;;
64094;SDS011;50353;51.420;5.682;2023-02-23T05:00:22;83.60;;;41.75;;
64094;SDS011;50353;51.420;5.682;2023-02-23T05:02:48;78.53;;;39.25;;
64094;SDS011;50353;51.420;5.682;2023-02-23T05:05:13;80.00;;;40.13;;
64094;SDS011;50353;51.420;5.682;2023-02-23T05:07:38;82.60;;;40.90;;
64094;SDS011;50353;51.420;5.682;2023-02-23T05:10:04;87.78;;;42.80;;
64094;SDS011;50353;51.420;5.682;2023-02-23T05:12:32;90.80;;;42.25;;
64094;SDS011;50353;51.420;5.682;2023-02-23T05:14:58;89.72;;;43.38;;
64094;SDS011;50353;51.420;5.682;2023-02-23T05:17:23;89.60;;;42.45;;
64094;SDS011;50353;51.420;5.682;2023-02-23T05:19:49;85.05;;;42.60;;
64094;SDS011;50353;51.420;5.682;2023-02-23T05:22:15;82.70;;;41.93;;
64094;SDS011;50353;51.420;5.682;2023-02-23T05:24:41;88.90;;;42.45;;
64094;SDS011;50353;51.420;5.682;2023-02-23T05:27:07;89.40;;;41.80;;
64094;SDS011;50353;51.420;5.682;2023-02-23T05:29:33;86.50;;;41.60;;
64094;SDS011;50353;51.420;5.682;2023-02-23T05:31:58;84.22;;;41.20;;
64094;SDS011;50353;51.420;5.682;2023-02-23T05:34:24;85.22;;;42.10;;
64094;SDS011;50353;51.420;5.682;2023-02-23T05:36:49;82.63;;;39.97;;
64094;SDS011;50353;51.420;5.682;2023-02-23T05:39:14;84.50;;;41.50;;
64094;SDS011;50353;51.420;5.682;2023-02-23T05:41:40;85.10;;;42.25;;
64094;SDS011;50353;51.420;5.682;2023-02-23T05:44:05;83.28;;;40.85;;
64094;SDS011;50353;51.420;5.682;2023-02-23T05:46:30;80.53;;;40.83;;
64094;SDS011;50353;51.420;5.682;2023-02-23T05:48:56;81.70;;;41.03;;
64094;SDS011;50353;51.420;5.682;2023-02-23T05:51:24;82.60;;;40.20;;
64094;SDS011;50353;51.420;5.682;2023-02-23T05:53:51;78.20;;;39.95;;
64094;SDS011;50353;51.420;5.682;2023-02-23T05:56:17;83.47;;;40.88;;
64094;SDS011;50353;51.420;5.682;2023-02-23T05:58:54;82.15;;;40.30;;
64094;SDS011;50353;51.420;5.682;2023-02-23T06:01:24;78.45;;;41.60;;
64094;SDS011;50353;51.420;5.682;2023-02-23T06:03:51;83.30;;;40.55;;
64094;SDS011;50353;51.420;5.682;2023-02-23T06:06:16;80.13;;;39.75;;
64094;SDS011;50353;51.420;5.682;2023-02-23T06:08:42;85.40;;;42.80;;
64094;SDS011;50353;51.420;5.682;2023-02-23T06:11:08;81.40;;;41.63;;
64094;SDS011;50353;51.420;5.682;2023-02-23T06:13:33;80.07;;;40.08;;
64094;SDS011;50353;51.420;5.682;2023-02-23T06:15:59;83.13;;;41.00;;
64094;SDS011;50353;51.420;5.682;2023-02-23T06:18:25;81.45;;;40.72;;
64094;SDS011;50353;51.420;5.682;2023-02-23T06:20:51;86.07;;;41.55;;
64094;SDS011;50353;51.420;5.682;2023-02-23T06:23:16;78.22;;;39.75;;
64094;SDS011;50353;51.420;5.682;2023-02-23T06:25:42;89.43;;;42.70;;
64094;SDS011;50353;51.420;5.682;2023-02-23T06:30:35;85.75;;;42.00;;
64094;SDS011;50353;51.420;5.682;2023-02-23T06:33:01;91.32;;;41.90;;
64094;SDS011;50353;51.420;5.682;2023-02-23T06:35:27;84.38;;;40.97;;
64094;SDS011;50353;51.420;5.682;2023-02-23T06:37:52;79.88;;;39.90;;
64094;SDS011;50353;51.420;5.682;2023-02-23T06:40:18;86.22;;;40.50;;
64094;SDS011;50353;51.420;5.682;2023-02-23T06:42:44;80.05;;;39.55;;
64094;SDS011;50353;51.420;5.682;2023-02-23T06:45:10;84.20;;;40.45;;
64094;SDS011;50353;51.420;5.682;2023-02-23T06:47:37;84.93;;;40.35;;
64094;SDS011;50353;51.420;5.682;2023-02-23T06:50:02;83.88;;;40.85;;
64094;SDS011;50353;51.420;5.682;2023-02-23T06:52:28;79.70;;;39.13;;
64094;SDS011;50353;51.420;5.682;2023-02-23T06:54:54;79.75;;;40.45;;
64094;SDS011;50353;51.420;5.682;2023-02-23T06:57:19;78.57;;;39.10;;
64094;SDS011;50353;51.420;5.682;2023-02-23T06:59:45;82.68;;;38.70;;
64094;SDS011;50353;51.420;5.682;2023-02-23T07:02:11;83.38;;;40.08;;
64094;SDS011;50353;51.420;5.682;2023-02-23T07:04:37;87.45;;;40.60;;
64094;SDS011;50353;51.420;5.682;2023-02-23T07:07:02;84.43;;;40.28;;
64094;SDS011;50353;51.420;5.682;2023-02-23T07:09:28;80.18;;;40.38;;
64094;SDS011;50353;51.420;5.682;2023-02-23T07:11:53;84.20;;;41.05;;
64094;SDS011;50353;51.420;5.682;2023-02-23T07:14:19;80.55;;;39.38;;
64094;SDS011;50353;51.420;5.682;2023-02-23T07:16:44;83.70;;;39.03;;
64094;SDS011;50353;51.420;5.682;2023-02-23T07:19:09;78.13;;;38.85;;
64094;SDS011;50353;51.420;5.682;2023-02-23T07:21:35;90.72;;;40.97;;
64094;SDS011;50353;51.420;5.682;2023-02-23T07:24:00;83.97;;;40.22;;
64094;SDS011;50353;51.420;5.682;2023-02-23T07:26:28;81.80;;;39.60;;
64094;SDS011;50353;51.420;5.682;2023-02-23T07:28:54;78.25;;;39.15;;
64094;SDS011;50353;51.420;5.682;2023-02-23T07:31:19;84.90;;;40.42;;
64094;SDS011;50353;51.420;5.682;2023-02-23T07:33:45;80.90;;;39.30;;
64094;SDS011;50353;51.420;5.682;2023-02-23T07:36:10;82.50;;;39.63;;
64094;SDS011;50353;51.420;5.682;2023-02-23T07:38:36;82.57;;;39.70;;
64094;SDS011;50353;51.420;5.682;2023-02-23T07:41:02;84.90;;;39.80;;
64094;SDS011;50353;51.420;5.682;2023-02-23T07:43:28;77.50;;;38.87;;
64094;SDS011;50353;51.420;5.682;2023-02-23T07:45:54;76.35;;;37.13;;
64094;SDS011;50353;51.420;5.682;2023-02-23T07:48:23;72.28;;;37.38;;
64094;SDS011;50353;51.420;5.682;2023-02-23T07:50:48;74.93;;;36.42;;
64094;SDS011;50353;51.420;5.682;2023-02-23T07:53:14;72.45;;;35.78;;
64094;SDS011;50353;51.420;5.682;2023-02-23T07:55:39;71.05;;;34.83;;
64094;SDS011;50353;51.420;5.682;2023-02-23T07:58:05;76.10;;;37.97;;
64094;SDS011;50353;51.420;5.682;2023-02-23T08:00:32;66.63;;;33.80;;
64094;SDS011;50353;51.420;5.682;2023-02-23T08:02:58;67.93;;;35.05;;
64094;SDS011;50353;51.420;5.682;2023-02-23T08:05:25;69.07;;;34.42;;
64094;SDS011;50353;51.420;5.682;2023-02-23T08:07:51;67.18;;;33.45;;
64094;SDS011;50353;51.420;5.682;2023-02-23T08:10:16;113.88;;;57.70;;
64094;SDS011;50353;51.420;5.682;2023-02-23T08:12:42;67.82;;;34.70;;
64094;SDS011;50353;51.420;5.682;2023-02-23T08:15:08;76.43;;;35.72;;
64094;SDS011;50353;51.420;5.682;2023-02-23T08:17:34;66.10;;;32.70;;
64094;SDS011;50353;51.420;5.682;2023-02-23T08:20:00;68.70;;;34.83;;
64094;SDS011;50353;51.420;5.682;2023-02-23T08:22:26;57.95;;;30.90;;
64094;SDS011;50353;51.420;5.682;2023-02-23T08:24:51;67.10;;;33.97;;
64094;SDS011;50353;51.420;5.682;2023-02-23T08:27:17;66.82;;;34.42;;
64094;SDS011;50353;51.420;5.682;2023-02-23T08:29:43;70.37;;;34.73;;
64094;SDS011;50353;51.420;5.682;2023-02-23T08:32:08;63.13;;;32.50;;
64094;SDS011;50353;51.420;5.682;2023-02-23T08:34:40;61.28;;;30.38;;
64094;SDS011;50353;51.420;5.682;2023-02-23T08:37:07;68.00;;;34.40;;
64094;SDS011;50353;51.420;5.682;2023-02-23T08:39:33;71.97;;;34.15;;
64094;SDS011;50353;51.420;5.682;2023-02-23T08:41:58;61.47;;;30.67;;
64094;SDS011;50353;51.420;5.682;2023-02-23T08:44:24;70.45;;;34.35;;
64094;SDS011;50353;51.420;5.682;2023-02-23T08:46:49;64.40;;;32.70;;
64094;SDS011;50353;51.420;5.682;2023-02-23T08:49:14;64.00;;;32.55;;
64094;SDS011;50353;51.420;5.682;2023-02-23T08:51:40;63.65;;;31.85;;
64094;SDS011;50353;51.420;5.682;2023-02-23T08:54:06;66.50;;;34.17;;
64094;SDS011;50353;51.420;5.682;2023-02-23T08:56:38;59.60;;;31.40;;
64094;SDS011;50353;51.420;5.682;2023-02-23T08:59:03;61.35;;;29.73;;
64094;SDS011;50353;51.420;5.682;2023-02-23T09:01:29;58.28;;;30.58;;
64094;SDS011;50353;51.420;5.682;2023-02-23T09:03:54;66.43;;;31.45;;
64094;SDS011;50353;51.420;5.682;2023-02-23T09:06:20;65.43;;;32.25;;
64094;SDS011;50353;51.420;5.682;2023-02-23T09:08:47;68.82;;;33.25;;
64094;SDS011;50353;51.420;5.682;2023-02-23T09:11:13;61.50;;;31.60;;
64094;SDS011;50353;51.420;5.682;2023-02-23T09:13:38;59.50;;;30.40;;
64094;SDS011;50353;51.420;5.682;2023-02-23T09:16:04;60.85;;;30.25;;
64094;SDS011;50353;51.420;5.682;2023-02-23T09:18:31;56.83;;;29.48;;
64094;SDS011;50353;51.420;5.682;2023-02-23T09:20:57;59.22;;;29.40;;
64094;SDS011;50353;51.420;5.682;2023-02-23T09:23:22;62.70;;;29.42;;
64094;SDS011;50353;51.420;5.682;2023-02-23T09:25:52;60.42;;;29.70;;
64094;SDS011;50353;51.420;5.682;2023-02-23T09:28:18;56.08;;;28.08;;
64094;SDS011;50353;51.420;5.682;2023-02-23T09:30:44;50.50;;;26.95;;
64094;SDS011;50353;51.420;5.682;2023-02-23T09:33:11;61.30;;;29.70;;
64094;SDS011;50353;51.420;5.682;2023-02-23T09:35:37;54.00;;;27.95;;
64094;SDS011;50353;51.420;5.682;2023-02-23T09:38:04;53.65;;;27.38;;
64094;SDS011;50353;51.420;5.682;2023-02-23T09:40:47;52.05;;;25.77;;
64094;SDS011;50353;51.420;5.682;2023-02-23T09:46:18;52.20;;;26.23;;
64094;SDS011;50353;51.420;5.682;2023-02-23T09:48:54;49.78;;;24.10;;
64094;SDS011;50353;51.420;5.682;2023-02-23T09:51:22;44.25;;;22.35;;
64094;SDS011;50353;51.420;5.682;2023-02-23T09:53:55;48.00;;;25.17;;
64094;SDS011;50353;51.420;5.682;2023-02-23T09:56:27;48.97;;;25.75;;
64094;SDS011;50353;51.420;5.682;2023-02-23T09:58:58;55.90;;;27.25;;
64094;SDS011;50353;51.420;5.682;2023-02-23T10:04:27;56.72;;;27.88;;
64094;SDS011;50353;51.420;5.682;2023-02-23T10:06:57;50.92;;;25.42;;
64094;SDS011;50353;51.420;5.682;2023-02-23T10:09:31;51.85;;;25.25;;
64094;SDS011;50353;51.420;5.682;2023-02-23T10:23:29;42.35;;;21.45;;
64094;SDS011;50353;51.420;5.682;2023-02-23T10:25:58;44.33;;;22.33;;
64094;SDS011;50353;51.420;5.682;2023-02-23T10:28:26;32.05;;;16.75;;
64094;SDS011;50353;51.420;5.682;2023-02-23T10:30:57;42.53;;;21.83;;
64094;SDS011;50353;51.420;5.682;2023-02-23T10:33:24;39.40;;;21.00;;
64094;SDS011;50353;51.420;5.682;2023-02-23T10:35:57;45.13;;;23.00;;
64094;SDS011;50353;51.420;5.682;2023-02-23T10:38:34;79.32;;;39.63;;
64094;SDS011;50353;51.420;5.682;2023-02-23T10:40:59;34.35;;;19.05;;
64094;SDS011;50353;51.420;5.682;2023-02-23T10:43:25;41.13;;;20.15;;
64094;SDS011;50353;51.420;5.682;2023-02-23T10:45:51;42.05;;;22.67;;
64094;SDS011;50353;51.420;5.682;2023-02-23T10:48:19;44.60;;;23.02;;
64094;SDS011;50353;51.420;5.682;2023-02-23T10:50:48;73.78;;;37.10;;
64094;SDS011;50353;51.420;5.682;2023-02-23T10:53:25;47.70;;;22.55;;
64094;SDS011;50353;51.420;5.682;2023-02-23T10:58:29;41.88;;;21.60;;
64094;SDS011;50353;51.420;5.682;2023-02-23T11:00:56;44.88;;;21.90;;
64094;SDS011;50353;51.420;5.682;2023-02-23T11:03:39;42.55;;;22.30;;
64094;SDS011;50353;51.420;5.682;2023-02-23T11:06:27;41.25;;;22.08;;
64094;SDS011;50353;51.420;5.682;2023-02-23T11:08:55;47.47;;;24.17;;
64094;SDS011;50353;51.420;5.682;2023-02-23T11:11:24;43.47;;;22.48;;
64094;SDS011;50353;51.420;5.682;2023-02-23T11:13:52;43.75;;;22.65;;
64094;SDS011;50353;51.420;5.682;2023-02-23T11:16:27;41.80;;;23.20;;
64094;SDS011;50353;51.420;5.682;2023-02-23T11:19:00;51.75;;;25.23;;
64094;SDS011;50353;51.420;5.682;2023-02-23T11:23:58;37.72;;;20.95;;
64094;SDS011;50353;51.420;5.682;2023-02-23T11:26:37;46.35;;;24.52;;
64094;SDS011;50353;51.420;5.682;2023-02-23T11:29:11;154.10;;;89.68;;
64094;SDS011;50353;51.420;5.682;2023-02-23T11:31:40;56.00;;;28.73;;
64094;SDS011;50353;51.420;5.682;2023-02-23T11:34:18;50.58;;;26.92;;
64094;SDS011;50353;51.420;5.682;2023-02-23T11:36:47;52.17;;;28.77;;
64094;SDS011;50353;51.420;5.682;2023-02-23T11:39:32;54.92;;;29.58;;
64094;SDS011;50353;51.420;5.682;2023-02-23T11:42:14;60.17;;;30.45;;
64094;SDS011;50353;51.420;5.682;2023-02-23T11:47:24;57.67;;;31.83;;
64094;SDS011;50353;51.420;5.682;2023-02-23T11:49:50;69.38;;;35.85;;
64094;SDS011;50353;51.420;5.682;2023-02-23T11:52:17;67.50;;;34.45;;
64094;SDS011;50353;51.420;5.682;2023-02-23T11:55:03;70.68;;;36.55;;
64094;SDS011;50353;51.420;5.682;2023-02-23T11:57:32;64.85;;;33.80;;
64094;SDS011;50353;51.420;5.682;2023-02-23T12:00:01;61.80;;;33.72;;
64094;SDS011;50353;51.420;5.682;2023-02-23T12:02:33;69.40;;;35.47;;
64094;SDS011;50353;51.420;5.682;2023-02-23T12:05:17;52.67;;;26.35;;
64094;SDS011;50353;51.420;5.682;2023-02-23T12:07:56;63.88;;;34.53;;
64094;SDS011;50353;51.420;5.682;2023-02-23T12:16:25;60.75;;;31.63;;
64094;SDS011;50353;51.420;5.682;2023-02-23T12:18:58;66.30;;;35.60;;
64094;SDS011;50353;51.420;5.682;2023-02-23T12:24:00;68.57;;;36.38;;
64094;SDS011;50353;51.420;5.682;2023-02-23T12:26:35;62.08;;;32.03;;
64094;SDS011;50353;51.420;5.682;2023-02-23T12:29:15;58.05;;;31.08;;
64094;SDS011;50353;51.420;5.682;2023-02-23T12:31:46;68.03;;;34.17;;
64094;SDS011;50353;51.420;5.682;2023-02-23T12:34:20;66.68;;;34.78;;
64094;SDS011;50353;51.420;5.682;2023-02-23T12:37:01;67.05;;;34.15;;
64094;SDS011;50353;51.420;5.682;2023-02-23T12:39:37;65.68;;;34.30;;
64094;SDS011;50353;51.420;5.682;2023-02-23T12:42:17;70.57;;;37.40;;
64094;SDS011;50353;51.420;5.682;2023-02-23T12:44:53;66.25;;;35.08;;
64094;SDS011;50353;51.420;5.682;2023-02-23T12:47:28;66.13;;;35.38;;
64094;SDS011;50353;51.420;5.682;2023-02-23T12:52:39;61.03;;;32.40;;
64094;SDS011;50353;51.420;5.682;2023-02-23T12:55:10;58.22;;;30.85;;
64094;SDS011;50353;51.420;5.682;2023-02-23T13:00:35;58.25;;;31.27;;
64094;SDS011;50353;51.420;5.682;2023-02-23T13:05:56;56.58;;;29.17;;
64094;SDS011;50353;51.420;5.682;2023-02-23T13:08:44;50.78;;;26.55;;
64094;SDS011;50353;51.420;5.682;2023-02-23T13:11:26;56.88;;;30.13;;
64094;SDS011;50353;51.420;5.682;2023-02-23T13:14:14;52.10;;;27.20;;
64094;SDS011;50353;51.420;5.682;2023-02-23T13:16:51;47.25;;;26.08;;
64094;SDS011;50353;51.420;5.682;2023-02-23T13:19:28;48.85;;;25.88;;
64094;SDS011;50353;51.420;5.682;2023-02-23T13:24:37;49.58;;;25.83;;
64094;SDS011;50353;51.420;5.682;2023-02-23T13:29:51;32.80;;;19.08;;
64094;SDS011;50353;51.420;5.682;2023-02-23T13:32:20;32.85;;;17.48;;
64094;SDS011;50353;51.420;5.682;2023-02-23T13:34:49;37.55;;;19.65;;
64094;SDS011;50353;51.420;5.682;2023-02-23T13:37:18;34.83;;;18.48;;
64094;SDS011;50353;51.420;5.682;2023-02-23T13:39:51;28.80;;;16.73;;
64094;SDS011;50353;51.420;5.682;2023-02-23T13:53:41;31.10;;;16.88;;
64094;SDS011;50353;51.420;5.682;2023-02-23T13:56:21;34.55;;;17.95;;
64094;SDS011;50353;51.420;5.682;2023-02-23T13:58:53;35.05;;;18.80;;
64094;SDS011;50353;51.420;5.682;2023-02-23T14:01:28;34.72;;;19.02;;
64094;SDS011;50353;51.420;5.682;2023-02-23T14:04:04;35.85;;;18.95;;
64094;SDS011;50353;51.420;5.682;2023-02-23T14:06:36;33.55;;;18.92;;
64094;SDS011;50353;51.420;5.682;2023-02-23T14:09:17;38.42;;;20.58;;
64094;SDS011;50353;51.420;5.682;2023-02-23T14:11:51;29.45;;;17.15;;
64094;SDS011;50353;51.420;5.682;2023-02-23T14:17:36;22.00;;;13.40;;
64094;SDS011;50353;51.420;5.682;2023-02-23T14:20:11;22.50;;;12.20;;
64094;SDS011;50353;51.420;5.682;2023-02-23T14:23:03;21.80;;;12.90;;
64094;SDS011;50353;51.420;5.682;2023-02-23T14:25:51;19.58;;;11.18;;
64094;SDS011;50353;51.420;5.682;2023-02-23T14:28:41;26.15;;;15.02;;
64094;SDS011;50353;51.420;5.682;2023-02-23T14:41:25;25.90;;;17.05;;
64094;SDS011;50353;51.420;5.682;2023-02-23T14:43:58;29.27;;;17.38;;
64094;SDS011;50353;51.420;5.682;2023-02-23T14:46:27;26.67;;;16.27;;
64094;SDS011;50353;51.420;5.682;2023-02-23T14:51:33;26.42;;;15.73;;
64094;SDS011;50353;51.420;5.682;2023-02-23T14:54:09;25.40;;;14.88;;
64094;SDS011;50353;51.420;5.682;2023-02-23T14:56:44;22.85;;;12.88;;
64094;SDS011;50353;51.420;5.682;2023-02-23T14:59:16;20.10;;;13.18;;
64094;SDS011;50353;51.420;5.682;2023-02-23T15:01:44;23.95;;;13.63;;
64094;SDS011;50353;51.420;5.682;2023-02-23T15:04:11;20.27;;;12.02;;
64094;SDS011;50353;51.420;5.682;2023-02-23T15:06:40;17.40;;;10.65;;
64094;SDS011;50353;51.420;5.682;2023-02-23T15:09:06;19.00;;;12.40;;
64094;SDS011;50353;51.420;5.682;2023-02-23T15:11:39;20.58;;;12.57;;
64094;SDS011;50353;51.420;5.682;2023-02-23T15:14:08;23.83;;;12.75;;
64094;SDS011;50353;51.420;5.682;2023-02-23T15:16:38;24.83;;;13.50;;
64094;SDS011;50353;51.420;5.682;2023-02-23T15:19:04;19.85;;;13.23;;
64094;SDS011;50353;51.420;5.682;2023-02-23T15:21:30;23.38;;;13.27;;
64094;SDS011;50353;51.420;5.682;2023-02-23T15:24:05;21.30;;;12.13;;
64094;SDS011;50353;51.420;5.682;2023-02-23T15:26:35;20.67;;;12.90;;
64094;SDS011;50353;51.420;5.682;2023-02-23T15:29:10;16.38;;;10.45;;
64094;SDS011;50353;51.420;5.682;2023-02-23T15:31:39;22.65;;;13.07;;
64094;SDS011;50353;51.420;5.682;2023-02-23T15:34:14;20.17;;;11.68;;
64094;SDS011;50353;51.420;5.682;2023-02-23T15:36:44;22.42;;;12.68;;
64094;SDS011;50353;51.420;5.682;2023-02-23T15:39:13;20.52;;;11.95;;
64094;SDS011;50353;51.420;5.682;2023-02-23T15:41:44;20.42;;;12.00;;
64094;SDS011;50353;51.420;5.682;2023-02-23T15:44:24;21.85;;;12.18;;
64094;SDS011;50353;51.420;5.682;2023-02-23T15:47:00;21.60;;;12.43;;
64094;SDS011;50353;51.420;5.682;2023-02-23T15:49:28;24.70;;;12.65;;
64094;SDS011;50353;51.420;5.682;2023-02-23T15:51:58;24.10;;;13.13;;
64094;SDS011;50353;51.420;5.682;2023-02-23T15:54:27;23.95;;;13.45;;
64094;SDS011;50353;51.420;5.682;2023-02-23T15:56:58;30.70;;;13.13;;
64094;SDS011;50353;51.420;5.682;2023-02-23T15:59:28;22.85;;;13.32;;
64094;SDS011;50353;51.420;5.682;2023-02-23T16:01:58;25.92;;;12.95;;
64094;SDS011;50353;51.420;5.682;2023-02-23T16:04:27;25.27;;;13.27;;
64094;SDS011;50353;51.420;5.682;2023-02-23T16:09:49;21.58;;;12.55;;
64094;SDS011;50353;51.420;5.682;2023-02-23T16:12:18;22.67;;;12.27;;
64094;SDS011;50353;51.420;5.682;2023-02-23T16:14:58;23.95;;;13.00;;
64094;SDS011;50353;51.420;5.682;2023-02-23T16:17:27;17.08;;;9.45;;
64094;SDS011;50353;51.420;5.682;2023-02-23T16:20:16;23.35;;;12.93;;
64094;SDS011;50353;51.420;5.682;2023-02-23T16:22:53;22.27;;;12.15;;
64094;SDS011;50353;51.420;5.682;2023-02-23T16:25:20;24.25;;;11.48;;
64094;SDS011;50353;51.420;5.682;2023-02-23T16:27:51;22.67;;;11.65;;
64094;SDS011;50353;51.420;5.682;2023-02-23T16:30:49;19.92;;;10.80;;
64094;SDS011;50353;51.420;5.682;2023-02-23T16:35:52;22.13;;;12.23;;
64094;SDS011;50353;51.420;5.682;2023-02-23T16:41:03;19.10;;;10.15;;
64094;SDS011;50353;51.420;5.682;2023-02-23T16:43:30;19.52;;;10.73;;